KFKR

Frankfort Municipal Airport

Frankfort, Indiana, USA
METAR KFKR 122055Z AUTO 24013KT 10SM CLR 08/01 A2984 RMK AO2 T00770013
Observed Flight Rules
Dec-12 @ 20:55 UTC (13 minutes ago) Visual Flight Rules
Wind Visibility Clouds
240° at 13 knots 10 miles
  • Clear skies
Temperatures Readings
Current 8°C / 46°F
Dewpoint 1°C / 34°F
Humidity 62%
Altimeter 29.84" Hg
Pressure 1010 hPa
Elevation 262
METAR KFKR 122055Z AUTO 24013KT 10SM CLR 08/01 A2984 RMK AO2 T00770013
Observed Flight Rules
Dec-12 @ 20:55 UTC
(13 minutes ago)
VFR
Wind Visibility
240° at 13 knots 10 miles
Clouds
  • Clear skies
Temperature Dewpoint
8°C / 46°F 1°C / 34°F
Humidity Altimeter Pressure
62% 29.84" Hg 1010 hPa